Time;durP1;ratioP1;P1;durP2;ratioP2;P2;SDS_P1;SDS_P2;PMS_P1;PMS_P2;Temp;Humidity;BMP_temperature;BMP_pressure;BME280_temperature;BME280_humidity;BME280_pressure;Samples;Min_cycle;Max_cycle;Signal;HPM_P1;HPM_P2
2023/05/06 00:01:08;;;;;;;1999.90;999.90;;;13.20;99.90;;;;;;5012273;28;20188;-73
2023/05/06 00:03:34;;;;;;;1999.90;999.90;;;13.10;99.90;;;;;;5012378;28;20172;-73
2023/05/06 00:06:01;;;;;;;1999.90;999.90;;;13.10;99.90;;;;;;5012410;28;20596;-73
2023/05/06 00:08:27;;;;;;;1999.90;999.90;;;13.10;99.90;;;;;;5012323;28;20411;-73
2023/05/06 00:10:52;;;;;;;1999.90;999.90;;;13.10;99.90;;;;;;5012238;28;20502;-73
2023/05/06 00:13:18;;;;;;;1999.90;999.90;;;13.10;99.90;;;;;;5012083;28;20680;-73
2023/05/06 00:15:44;;;;;;;1999.90;999.90;;;13.00;99.90;;;;;;5012258;28;20193;-73
2023/05/06 00:18:09;;;;;;;1999.90;999.90;;;13.00;99.90;;;;;;5012282;28;20287;-73
2023/05/06 00:20:35;;;;;;;1999.90;999.90;;;13.00;99.90;;;;;;5012291;28;20258;-73
2023/05/06 00:23:00;;;;;;;1999.90;999.90;;;12.90;99.90;;;;;;5011838;28;20175;-73
2023/05/06 00:25:26;;;;;;;1999.90;999.90;;;12.90;99.90;;;;;;5012101;28;20539;-73
2023/05/06 00:27:52;;;;;;;1999.90;999.90;;;12.80;99.90;;;;;;5012197;28;20172;-74
2023/05/06 00:30:18;;;;;;;1999.90;999.90;;;12.80;99.90;;;;;;5012195;28;20332;-73
2023/05/06 00:32:43;;;;;;;1999.90;999.90;;;12.70;99.90;;;;;;5011767;28;21121;-73
2023/05/06 00:35:09;;;;;;;1999.90;999.90;;;12.70;99.90;;;;;;5011989;28;20197;-73
2023/05/06 00:37:35;;;;;;;1999.90;999.90;;;12.60;99.90;;;;;;5011975;28;20172;-74
2023/05/06 00:40:01;;;;;;;1999.90;999.90;;;12.60;99.90;;;;;;5012231;28;20627;-73
2023/05/06 00:42:27;;;;;;;1999.90;999.90;;;12.50;99.90;;;;;;5011791;28;20638;-73
2023/05/06 00:44:53;;;;;;;1999.90;999.90;;;12.60;99.90;;;;;;5011900;28;20481;-74
2023/05/06 00:47:20;;;;;;;1999.90;999.90;;;12.50;99.90;;;;;;5012008;28;20259;-73
2023/05/06 00:49:46;;;;;;;1999.90;999.90;;;12.50;99.90;;;;;;5011978;28;20670;-73
2023/05/06 00:52:13;;;;;;;1999.90;999.90;;;12.50;99.90;;;;;;5011584;28;20407;-73
2023/05/06 00:54:39;;;;;;;1999.90;999.90;;;12.50;99.90;;;;;;5011793;28;20544;-73
2023/05/06 00:57:05;;;;;;;1999.90;999.90;;;12.40;99.90;;;;;;5012002;28;20484;-73
2023/05/06 00:59:30;;;;;;;1999.90;999.90;;;12.40;99.90;;;;;;5011798;28;20178;-73
2023/05/06 01:01:57;;;;;;;1999.90;999.90;;;12.40;99.90;;;;;;5011502;28;20262;-73
2023/05/06 01:04:23;;;;;;;1999.90;999.90;;;12.40;99.90;;;;;;5011803;28;20838;-74
2023/05/06 01:07:06;;;;;;;1999.90;999.90;;;12.40;99.90;;;;;;5011678;28;20421;-73
2023/05/06 01:09:43;;;;;;;1999.90;999.90;;;12.30;99.90;;;;;;5014939;28;20493;-73
2023/05/06 01:12:22;;;;;;;1999.90;999.90;;;12.20;99.90;;;;;;5015403;28;20410;-73
2023/05/06 01:15:15;;;;;;;1999.90;999.90;;;12.20;99.90;;;;;;5015302;28;20461;-73
2023/05/06 01:17:44;;;;;;;1999.90;999.90;;;12.20;99.90;;;;;;5015591;28;20449;-72
2023/05/06 01:20:11;;;;;;;1999.90;999.90;;;12.10;99.90;;;;;;5015527;28;20838;-72
2023/05/06 01:22:37;;;;;;;1999.90;999.90;;;12.10;99.90;;;;;;5015118;28;20445;-72
2023/05/06 01:25:03;;;;;;;1999.90;999.90;;;12.00;99.90;;;;;;5015289;28;20476;-73
2023/05/06 01:27:29;;;;;;;1999.90;999.90;;;11.90;99.90;;;;;;5015223;28;20413;-72
2023/05/06 01:29:55;;;;;;;1999.90;999.90;;;11.80;99.90;;;;;;5015289;28;20406;-73
2023/05/06 01:32:39;;;;;;;1999.90;999.90;;;11.80;99.90;;;;;;5014953;28;20199;-73
2023/05/06 01:35:31;;;;;;;1999.90;999.90;;;11.70;99.90;;;;;;5015134;28;21125;-73
2023/05/06 01:38:28;;;;;;;1999.90;999.90;;;11.70;99.90;;;;;;5015079;28;20400;-73
2023/05/06 01:40:55;;;;;;;1999.90;999.90;;;11.70;99.90;;;;;;5014778;28;20411;-72
2023/05/06 01:43:25;;;;;;;1999.90;999.90;;;11.70;99.90;;;;;;5015268;28;20459;-73
2023/05/06 01:45:53;;;;;;;1999.90;999.90;;;11.70;99.90;;;;;;5015051;28;20436;-73
2023/05/06 01:48:25;;;;;;;1999.90;999.90;;;11.70;99.90;;;;;;5014941;28;20454;-72
2023/05/06 01:50:51;;;;;;;1999.90;999.90;;;11.70;99.90;;;;;;5014892;28;20903;-72
2023/05/06 01:53:16;;;;;;;1999.90;999.90;;;11.70;99.90;;;;;;5014818;28;20458;-73
2023/05/06 01:55:42;;;;;;;1999.90;999.90;;;11.70;99.90;;;;;;5014738;28;20788;-72
2023/05/06 01:58:07;;;;;;;1999.90;999.90;;;11.70;99.90;;;;;;5014794;28;20249;-73
2023/05/06 02:00:33;;;;;;;1999.90;999.90;;;11.60;99.90;;;;;;5014672;28;20288;-72
2023/05/06 02:02:58;;;;;;;1999.90;999.90;;;11.50;99.90;;;;;;5014327;28;20533;-72
2023/05/06 02:05:25;;;;;;;1999.90;999.90;;;11.40;99.90;;;;;;5014662;28;20191;-73
2023/05/06 02:07:50;;;;;;;1999.90;999.90;;;11.30;99.90;;;;;;5014654;28;20200;-72
2023/05/06 02:10:16;;;;;;;1999.90;999.90;;;11.30;99.90;;;;;;5014569;28;20899;-73
2023/05/06 02:12:42;;;;;;;1999.90;999.90;;;11.30;99.90;;;;;;5014402;28;20264;-72
2023/05/06 02:15:08;;;;;;;1999.90;999.90;;;11.30;99.90;;;;;;5014241;28;20263;-72
2023/05/06 02:17:36;;;;;;;1999.90;999.90;;;11.30;99.90;;;;;;5014655;28;20699;-73
2023/05/06 02:20:01;;;;;;;1999.90;999.90;;;11.40;99.90;;;;;;5013846;28;20410;-72
2023/05/06 02:22:27;;;;;;;1999.90;999.90;;;11.40;99.90;;;;;;5014086;28;20404;-73
2023/05/06 02:24:52;;;;;;;1999.90;999.90;;;11.40;99.90;;;;;;5014189;28;20249;-73
2023/05/06 02:27:18;;;;;;;1999.90;999.90;;;11.50;99.90;;;;;;5014320;28;20199;-72
2023/05/06 02:29:44;;;;;;;1999.90;999.90;;;11.60;99.90;;;;;;5014267;28;20661;-72
2023/05/06 02:32:10;;;;;;;1999.90;999.90;;;11.50;99.90;;;;;;5013958;28;20170;-73
2023/05/06 02:34:35;;;;;;;1999.90;999.90;;;11.40;99.90;;;;;;5013856;28;21043;-73
2023/05/06 02:37:01;;;;;;;1999.90;999.90;;;11.40;99.90;;;;;;5014143;28;20197;-72
2023/05/06 02:39:27;;;;;;;1999.90;999.90;;;11.50;99.90;;;;;;5014016;28;20514;-72
2023/05/06 02:41:52;;;;;;;1999.90;999.90;;;11.50;99.90;;;;;;5013688;28;20178;-72
2023/05/06 02:44:18;;;;;;;1999.90;999.90;;;11.40;99.90;;;;;;5013795;28;20775;-73
2023/05/06 02:46:43;;;;;;;1999.90;999.90;;;11.40;99.90;;;;;;5013796;28;20170;-72
2023/05/06 02:49:09;;;;;;;1999.90;999.90;;;11.40;99.90;;;;;;5013752;28;20178;-73
2023/05/06 02:51:35;;;;;;;1999.90;999.90;;;11.40;99.90;;;;;;5013536;28;20166;-72
2023/05/06 02:54:00;;;;;;;1999.90;999.90;;;11.40;99.90;;;;;;5013458;28;20206;-73
2023/05/06 02:56:26;;;;;;;1999.90;999.90;;;11.40;99.90;;;;;;5013900;28;20404;-72
2023/05/06 02:58:52;;;;;;;1999.90;999.90;;;11.30;99.90;;;;;;5013663;28;20609;-73
2023/05/06 03:01:18;;;;;;;1999.90;999.90;;;11.30;99.90;;;;;;5013296;28;20256;-73
2023/05/06 03:03:43;;;;;;;1999.90;999.90;;;11.70;99.90;;;;;;5013409;28;20553;-72
2023/05/06 03:06:09;;;;;;;1999.90;999.90;;;11.30;99.90;;;;;;5013582;28;20176;-73
2023/05/06 03:08:35;;;;;;;1999.90;999.90;;;11.30;99.90;;;;;;5013460;28;20177;-73
2023/05/06 03:11:00;;;;;;;1999.90;999.90;;;11.30;99.90;;;;;;5013329;28;20545;-73
2023/05/06 03:13:26;;;;;;;1999.90;999.90;;;11.20;99.90;;;;;;5013199;28;20213;-72
2023/05/06 03:15:55;;;;;;;1999.90;999.90;;;11.20;99.90;;;;;;5011994;28;20571;-72
2023/05/06 03:18:21;;;;;;;1999.90;999.90;;;11.20;99.90;;;;;;5013270;28;20161;-73
2023/05/06 03:20:47;;;;;;;1999.90;999.90;;;11.10;99.90;;;;;;5013248;28;20440;-72
2023/05/06 03:23:13;;;;;;;1999.90;999.90;;;11.10;99.90;;;;;;5013029;28;20169;-73
2023/05/06 03:25:39;;;;;;;1999.90;999.90;;;11.00;99.90;;;;;;5013123;28;20435;-72
2023/05/06 03:28:04;;;;;;;1999.90;999.90;;;11.00;99.90;;;;;;5013296;28;20205;-73
2023/05/06 03:30:30;;;;;;;1999.90;999.90;;;10.80;99.90;;;;;;5012436;28;20178;-73
2023/05/06 03:32:56;;;;;;;1999.90;999.90;;;10.90;99.90;;;;;;5012580;28;20257;-72
2023/05/06 03:35:22;;;;;;;1999.90;999.90;;;10.80;99.90;;;;;;5012870;28;20667;-72
2023/05/06 03:37:47;;;;;;;1999.90;999.90;;;10.80;99.90;;;;;;5013084;28;20412;-73
2023/05/06 03:40:13;;;;;;;1999.90;999.90;;;10.70;99.90;;;;;;5012971;28;20166;-72
2023/05/06 03:42:38;;;;;;;1999.90;999.90;;;10.70;99.90;;;;;;5012663;28;20193;-72
2023/05/06 03:45:06;;;;;;;1999.90;999.90;;;10.90;99.90;;;;;;5012904;28;20690;-72
2023/05/06 03:47:31;;;;;;;1999.90;999.90;;;10.70;99.90;;;;;;5012834;28;20268;-72
2023/05/06 03:49:58;;;;;;;1999.90;999.90;;;10.70;99.90;;;;;;5012837;28;20555;-72
2023/05/06 03:52:23;;;;;;;1999.90;999.90;;;10.60;99.90;;;;;;5012662;28;20168;-72
2023/05/06 03:54:49;;;;;;;1999.90;999.90;;;10.60;99.90;;;;;;5012811;28;20471;-73
2023/05/06 03:57:14;;;;;;;1999.90;999.90;;;10.60;99.90;;;;;;5012966;28;20165;-72
2023/05/06 03:59:40;;;;;;;1999.90;999.90;;;10.60;99.90;;;;;;5012853;28;20535;-72
2023/05/06 04:02:06;;;;;;;1999.90;999.90;;;10.50;99.90;;;;;;5012939;28;20171;-72
2023/05/06 04:04:31;;;;;;;1999.90;999.90;;;10.60;99.90;;;;;;5012611;28;20276;-72
2023/05/06 04:06:57;;;;;;;1999.90;999.90;;;10.60;99.90;;;;;;5012778;28;20166;-72
2023/05/06 04:09:22;;;;;;;1999.90;999.90;;;10.60;99.90;;;;;;5012622;28;20206;-73
2023/05/06 04:11:48;;;;;;;1999.90;999.90;;;10.40;99.90;;;;;;5012410;28;20177;-72
2023/05/06 04:14:13;;;;;;;1999.90;999.90;;;10.40;99.90;;;;;;5012361;28;20217;-73
2023/05/06 04:16:40;;;;;;;1999.90;999.90;;;10.40;99.90;;;;;;5012859;28;20256;-72
2023/05/06 04:19:06;;;;;;;1999.90;999.90;;;10.60;99.90;;;;;;5012968;28;20403;-72
2023/05/06 04:21:31;;;;;;;1999.90;999.90;;;10.50;99.90;;;;;;5012403;28;20168;-72
2023/05/06 04:23:58;;;;;;;1999.90;999.90;;;10.60;99.90;;;;;;5012858;28;20204;-73
2023/05/06 04:26:23;;;;;;;1999.90;999.90;;;10.50;99.90;;;;;;5012996;28;20408;-72
2023/05/06 04:28:49;;;;;;;1999.90;999.90;;;10.60;99.90;;;;;;5012724;28;20410;-73
2023/05/06 04:31:15;;;;;;;1999.90;999.90;;;10.60;99.90;;;;;;5012490;28;20180;-72
2023/05/06 04:33:40;;;;;;;1999.90;999.90;;;10.80;99.90;;;;;;5012458;28;20208;-72
2023/05/06 04:36:07;;;;;;;1999.90;999.90;;;10.60;99.90;;;;;;5012476;28;20459;-72
2023/05/06 04:38:33;;;;;;;1999.90;999.90;;;10.70;99.90;;;;;;5012537;28;20184;-73
2023/05/06 04:40:59;;;;;;;1999.90;999.90;;;10.70;99.90;;;;;;5011959;28;20407;-72
2023/05/06 04:43:28;;;;;;;1999.90;999.90;;;10.70;99.90;;;;;;5015248;28;20414;-73
2023/05/06 04:45:54;;;;;;;1999.90;999.90;;;10.70;99.90;;;;;;5016269;28;20249;-72
2023/05/06 04:48:21;;;;;;;1999.90;999.90;;;10.70;99.90;;;;;;5016012;28;20499;-72
2023/05/06 04:50:47;;;;;;;1999.90;999.90;;;10.80;99.90;;;;;;5015955;28;20264;-72
2023/05/06 04:53:14;;;;;;;1999.90;999.90;;;10.90;99.90;;;;;;5015714;28;20419;-72
2023/05/06 04:55:39;;;;;;;1999.90;999.90;;;10.90;99.90;;;;;;5015847;28;20957;-73
2023/05/06 04:58:06;;;;;;;1999.90;999.90;;;11.00;99.90;;;;;;5016360;28;20448;-72
2023/05/06 05:00:32;;;;;;;1999.90;999.90;;;11.10;99.90;;;;;;5015995;28;20235;-72
2023/05/06 05:02:57;;;;;;;1999.90;999.90;;;11.00;99.90;;;;;;5015427;28;20420;-73
2023/05/06 05:05:24;;;;;;;1999.90;999.90;;;11.00;99.90;;;;;;5015707;28;20200;-72
2023/05/06 05:07:49;;;;;;;1999.90;999.90;;;11.10;99.90;;;;;;5015849;28;20196;-72
2023/05/06 05:10:15;;;;;;;1999.90;999.90;;;11.10;99.90;;;;;;5016019;28;20411;-72
2023/05/06 05:12:40;;;;;;;1999.90;999.90;;;11.20;99.90;;;;;;5015642;28;20253;-72
2023/05/06 05:15:06;;;;;;;1999.90;999.90;;;11.20;99.90;;;;;;5015295;28;20210;-72
2023/05/06 05:17:32;;;;;;;1999.90;999.90;;;11.30;99.90;;;;;;5015435;28;20173;-72
2023/05/06 05:19:57;;;;;;;1999.90;999.90;;;11.40;99.90;;;;;;5015496;28;20437;-72
2023/05/06 05:22:23;;;;;;;1999.90;999.90;;;11.50;99.90;;;;;;5015106;28;20170;-72
2023/05/06 05:24:49;;;;;;;1999.90;999.90;;;11.60;99.90;;;;;;5015120;28;20208;-72
2023/05/06 05:27:14;;;;;;;1999.90;999.90;;;11.60;99.90;;;;;;5015256;28;20188;-72
2023/05/06 05:29:40;;;;;;;1999.90;999.90;;;11.70;99.90;;;;;;5015281;28;20648;-72
2023/05/06 05:32:05;;;;;;;1999.90;999.90;;;11.80;99.90;;;;;;5014924;28;20254;-72
2023/05/06 05:34:31;;;;;;;1999.90;999.90;;;11.90;99.90;;;;;;5014972;28;20202;-72
2023/05/06 05:36:57;;;;;;;1999.90;999.90;;;11.90;99.90;;;;;;5015132;28;20231;-72
2023/05/06 05:39:22;;;;;;;1999.90;999.90;;;12.00;99.90;;;;;;5014995;28;20230;-73
2023/05/06 05:41:48;;;;;;;1999.90;999.90;;;12.10;99.90;;;;;;5011841;28;20217;-73
2023/05/06 05:44:14;;;;;;;1999.90;999.90;;;12.10;99.90;;;;;;5014621;28;20430;-72
2023/05/06 05:46:41;;;;;;;1999.90;999.90;;;12.20;99.90;;;;;;5014933;28;20170;-73
2023/05/06 05:49:06;;;;;;;1999.90;999.90;;;12.30;99.90;;;;;;5014940;28;20416;-73
2023/05/06 05:51:32;;;;;;;1999.90;999.90;;;12.40;99.90;;;;;;5014556;28;20476;-73
2023/05/06 05:53:58;;;;;;;1999.90;999.90;;;12.60;99.90;;;;;;5013883;28;20301;-73
2023/05/06 05:56:23;;;;;;;1999.90;999.90;;;12.60;99.90;;;;;;5014713;28;20181;-73
2023/05/06 05:58:49;;;;;;;1999.90;999.90;;;12.60;99.90;;;;;;5014739;28;20551;-73
2023/05/06 06:01:15;;;;;;;1999.90;999.90;;;12.70;99.90;;;;;;5014387;28;20172;-73
2023/05/06 06:03:41;;;;;;;1999.90;999.90;;;12.90;99.90;;;;;;5014647;28;20238;-73
2023/05/06 06:06:07;;;;;;;1999.90;999.90;;;12.80;99.90;;;;;;5014580;28;20225;-73
2023/05/06 06:08:33;;;;;;;1999.90;999.90;;;12.90;99.90;;;;;;5014579;28;20421;-73
2023/05/06 06:10:59;;;;;;;1999.90;999.90;;;12.90;99.90;;;;;;5014152;28;20417;-73
2023/05/06 06:13:26;;;;;;;1999.90;999.90;;;13.00;99.90;;;;;;5014228;28;20465;-72
2023/05/06 06:15:52;;;;;;;1999.90;999.90;;;13.00;99.90;;;;;;5014194;28;20433;-72
2023/05/06 06:18:17;;;;;;;1999.90;999.90;;;13.10;99.90;;;;;;5014454;28;20411;-72
2023/05/06 06:20:43;;;;;;;1999.90;999.90;;;13.20;99.90;;;;;;5014293;28;20172;-73
2023/05/06 06:23:08;;;;;;;1999.90;999.90;;;13.30;99.90;;;;;;5013985;28;20227;-73
2023/05/06 06:25:34;;;;;;;1999.90;999.90;;;13.40;99.90;;;;;;5014042;28;20199;-73
2023/05/06 06:28:00;;;;;;;1999.90;999.90;;;13.50;99.90;;;;;;5014165;28;20175;-73
2023/05/06 06:30:25;;;;;;;1999.90;999.90;;;13.60;99.90;;;;;;5014037;28;20178;-73
2023/05/06 06:32:52;;;;;;;1999.90;999.90;;;13.70;99.90;;;;;;5013773;28;20614;-73
2023/05/06 06:35:22;;;;;;;1999.90;999.90;;;13.80;99.90;;;;;;5013850;28;20710;-73
2023/05/06 06:37:47;;;;;;;1999.90;999.90;;;13.90;99.90;;;;;;5013885;28;20401;-73
2023/05/06 06:40:13;;;;;;;1999.90;999.90;;;14.00;99.90;;;;;;5013945;28;20409;-73
2023/05/06 06:42:39;;;;;;;1999.90;999.90;;;14.00;99.90;;;;;;5013592;28;20181;-73
2023/05/06 06:45:08;;;;;;;1999.90;999.90;;;14.10;99.90;;;;;;5013726;28;20261;-73
2023/05/06 06:47:34;;;;;;;1999.90;999.90;;;14.20;99.90;;;;;;5013779;28;20176;-73
2023/05/06 06:50:00;;;;;;;1999.90;999.90;;;14.30;99.90;;;;;;5013596;28;20418;-73
2023/05/06 06:52:26;;;;;;;1999.90;999.90;;;14.30;99.90;;;;;;5012948;28;20418;-72
2023/05/06 06:54:51;;;;;;;1999.90;999.90;;;14.40;99.90;;;;;;5013435;28;20691;-72
2023/05/06 06:57:17;;;;;;;1999.90;999.90;;;14.40;99.90;;;;;;5013596;28;20641;-72
2023/05/06 06:59:43;;;;;;;1999.90;999.90;;;14.50;99.90;;;;;;5013512;28;20593;-72
2023/05/06 07:02:09;;;;;;;1999.90;999.90;;;14.50;99.90;;;;;;5013230;28;20405;-73
2023/05/06 07:04:34;;;;;;;1999.90;999.90;;;14.60;99.90;;;;;;5013379;28;20565;-73
2023/05/06 07:07:00;;;;;;;1999.90;999.90;;;14.60;99.90;;;;;;5012409;28;20168;-73
2023/05/06 07:09:25;;;;;;;1999.90;999.90;;;14.70;99.90;;;;;;5013838;28;20656;-73
2023/05/06 07:11:51;;;;;;;1999.90;999.90;;;14.80;99.90;;;;;;5013048;28;20637;-73
2023/05/06 07:14:17;;;;;;;1999.90;999.90;;;14.90;99.90;;;;;;5013006;28;20208;-72
2023/05/06 07:16:42;;;;;;;1999.90;999.90;;;15.00;99.90;;;;;;5013212;28;20171;-72
2023/05/06 07:19:08;;;;;;;1999.90;999.90;;;15.20;99.90;;;;;;5013177;28;20170;-72
2023/05/06 07:21:33;;;;;;;1999.90;999.90;;;15.20;99.90;;;;;;5013132;28;20184;-72
2023/05/06 07:23:59;;;;;;;1999.90;999.90;;;15.30;99.90;;;;;;5013035;28;20207;-73
2023/05/06 07:26:25;;;;;;;1999.90;999.90;;;15.40;99.90;;;;;;5013074;28;20201;-73
2023/05/06 07:28:51;;;;;;;1999.90;999.90;;;15.40;99.90;;;;;;5012908;28;20477;-73
2023/05/06 07:31:19;;;;;;;1999.90;999.90;;;15.40;99.90;;;;;;5012724;28;20421;-73
2023/05/06 07:33:46;;;;;;;1999.90;999.90;;;15.80;99.90;;;;;;5012840;28;20476;-73
2023/05/06 07:36:12;;;;;;;1999.90;999.90;;;15.60;99.90;;;;;;5012878;28;20427;-73
2023/05/06 07:38:37;;;;;;;1999.90;999.90;;;15.60;99.90;;;;;;5012838;28;20423;-73
2023/05/06 07:41:03;;;;;;;1999.90;999.90;;;15.60;99.90;;;;;;5012541;28;20176;-73
2023/05/06 07:43:29;;;;;;;1999.90;999.90;;;15.80;99.90;;;;;;5012741;28;20174;-72
2023/05/06 07:46:01;;;;;;;1999.90;999.90;;;15.80;99.90;;;;;;5012761;28;20177;-73
2023/05/06 07:48:27;;;;;;;1999.90;999.90;;;16.00;99.90;;;;;;5012792;28;20187;-73
2023/05/06 07:50:52;;;;;;;1999.90;999.90;;;16.10;99.90;;;;;;5012407;28;20405;-73
2023/05/06 07:53:18;;;;;;;1999.90;999.90;;;16.10;99.90;;;;;;5012562;28;20473;-73
2023/05/06 07:55:44;;;;;;;1999.90;999.90;;;16.20;99.90;;;;;;5012543;28;20564;-73
2023/05/06 07:58:10;;;;;;;1999.90;999.90;;;16.30;99.90;;;;;;5012568;28;20451;-73
2023/05/06 08:00:35;;;;;;;1999.90;999.90;;;16.30;99.90;;;;;;5012519;28;20176;-73
2023/05/06 08:03:01;;;;;;;1999.90;999.90;;;16.40;99.90;;;;;;5012270;28;20412;-73
2023/05/06 08:05:26;;;;;;;1999.90;999.90;;;16.50;99.90;;;;;;5012295;28;20669;-73
2023/05/06 08:07:53;;;;;;;1999.90;999.90;;;16.60;99.90;;;;;;5012373;28;20179;-73
2023/05/06 08:10:18;;;;;;;1999.90;999.90;;;16.70;99.90;;;;;;5012358;28;20192;-73
2023/05/06 08:12:44;;;;;;;1999.90;999.90;;;16.60;99.90;;;;;;5012005;28;20786;-73
2023/05/06 08:15:10;;;;;;;1999.90;999.90;;;16.50;99.90;;;;;;5012136;28;20215;-73
2023/05/06 08:17:36;;;;;;;1999.90;999.90;;;16.60;99.90;;;;;;5011878;28;20172;-73
2023/05/06 08:20:01;;;;;;;1999.90;999.90;;;16.80;99.90;;;;;;5012272;28;20502;-73
2023/05/06 08:22:27;;;;;;;1999.90;999.90;;;16.90;99.90;;;;;;5012443;28;20532;-73
2023/05/06 08:24:53;;;;;;;1999.90;999.90;;;17.00;99.90;;;;;;5012854;28;20232;-73
2023/05/06 08:27:19;;;;;;;1999.90;999.90;;;17.10;99.90;;;;;;5012512;28;20175;-73
2023/05/06 08:29:44;;;;;;;1999.90;999.90;;;17.20;99.90;;;;;;5012372;28;20414;-73
2023/05/06 08:32:10;;;;;;;1999.90;999.90;;;17.30;99.90;;;;;;5011999;28;20180;-73
2023/05/06 08:34:35;;;;;;;1999.90;999.90;;;17.50;99.90;;;;;;5012022;28;20205;-73
2023/05/06 08:37:01;;;;;;;1999.90;999.90;;;17.60;99.90;;;;;;5012052;28;20538;-73
2023/05/06 08:39:27;;;;;;;1999.90;999.90;;;17.80;99.90;;;;;;5012103;28;20181;-73
2023/05/06 08:41:55;;;;;;;1999.90;999.90;;;18.00;99.90;;;;;;5011746;28;20199;-73
2023/05/06 08:44:22;;;;;;;1999.90;999.90;;;18.10;99.90;;;;;;5012006;28;20306;-73
2023/05/06 08:46:48;;;;;;;1999.90;999.90;;;18.20;99.90;;;;;;5012025;28;20415;-73
2023/05/06 08:49:14;;;;;;;1999.90;999.90;;;18.40;99.90;;;;;;5011937;28;20422;-74
2023/05/06 08:51:42;;;;;;;1999.90;999.90;;;18.40;99.90;;;;;;5011669;28;20624;-73
2023/05/06 08:54:12;;;;;;;1999.90;999.90;;;18.50;99.90;;;;;;5011752;28;20719;-74
2023/05/06 08:56:46;;;;;;;1999.90;999.90;;;18.60;99.90;;;;;;5011720;28;20411;-74
2023/05/06 08:59:12;;;;;;;1999.90;999.90;;;18.70;99.90;;;;;;5011893;28;20929;-74
2023/05/06 09:01:38;;;;;;;1999.90;999.90;;;18.90;99.90;;;;;;5011582;28;20462;-73
2023/05/06 09:04:06;;;;;;;1999.90;999.90;;;19.00;99.90;;;;;;5011755;28;20526;-73
2023/05/06 09:06:33;;;;;;;1999.90;999.90;;;19.10;99.90;;;;;;5011810;28;20943;-73
2023/05/06 09:08:58;;;;;;;1999.90;999.90;;;19.30;99.90;;;;;;5011784;28;20414;-73
2023/05/06 09:11:28;;;;;;;1999.90;999.90;;;19.40;99.90;;;;;;5011488;28;20543;-74
2023/05/06 09:14:14;;;;;;;1999.90;999.90;;;19.60;99.90;;;;;;5011433;28;20856;-73
2023/05/06 09:16:45;;;;;;;1999.90;999.90;;;19.80;99.90;;;;;;5011674;28;20455;-73
2023/05/06 09:19:11;;;;;;;1999.90;999.90;;;19.90;99.90;;;;;;5011697;28;20411;-74
2023/05/06 09:21:41;;;;;;;1999.90;999.90;;;20.00;99.90;;;;;;5011435;28;20479;-74
2023/05/06 09:24:09;;;;;;;1999.90;999.90;;;20.10;99.90;;;;;;5011606;28;20424;-73
2023/05/06 09:26:36;;;;;;;1999.90;999.90;;;20.20;99.90;;;;;;5011553;28;20780;-73
2023/05/06 09:29:03;;;;;;;1999.90;999.90;;;20.30;99.90;;;;;;5012389;28;20918;-73
2023/05/06 09:31:29;;;;;;;1999.90;999.90;;;20.20;99.90;;;;;;5014968;28;20408;-73
2023/05/06 09:33:56;;;;;;;1999.90;999.90;;;20.20;99.90;;;;;;5015031;28;20464;-73
2023/05/06 09:36:23;;;;;;;1999.90;999.90;;;20.40;99.90;;;;;;5015155;28;20190;-73
2023/05/06 09:38:49;;;;;;;1999.90;999.90;;;20.50;99.90;;;;;;5015073;28;20914;-73
2023/05/06 09:41:19;;;;;;;1999.90;999.90;;;20.70;99.90;;;;;;5014668;28;20419;-73
2023/05/06 09:43:47;;;;;;;1999.90;999.90;;;20.80;99.90;;;;;;5014975;28;20198;-72
2023/05/06 09:46:14;;;;;;;1999.90;999.90;;;20.90;99.90;;;;;;5014972;28;20413;-73
2023/05/06 09:48:40;;;;;;;1999.90;999.90;;;21.00;99.90;;;;;;5015066;28;20834;-73
2023/05/06 09:51:06;;;;;;;1999.90;999.90;;;21.10;99.90;;;;;;5014657;28;20452;-73
2023/05/06 09:53:36;;;;;;;1999.90;999.90;;;21.20;99.90;;;;;;5014750;28;20202;-73
2023/05/06 09:56:05;;;;;;;1999.90;999.90;;;21.50;99.90;;;;;;5014701;28;20446;-72
2023/05/06 09:58:32;;;;;;;1999.90;999.90;;;21.70;99.90;;;;;;5014949;28;20438;-72
2023/05/06 10:00:58;;;;;;;1999.90;999.90;;;22.00;99.90;;;;;;5014873;28;20382;-74
2023/05/06 10:03:25;;;;;;;1999.90;999.90;;;22.20;99.90;;;;;;5014565;28;20407;-73
2023/05/06 10:05:52;;;;;;;1999.90;999.90;;;22.50;99.90;;;;;;5014508;28;20805;-73
2023/05/06 10:08:18;;;;;;;1999.90;999.90;;;22.60;99.90;;;;;;5014519;28;20506;-73
2023/05/06 10:10:47;;;;;;;1999.90;999.90;;;22.70;99.90;;;;;;5014384;28;20845;-72
2023/05/06 10:13:14;;;;;;;1999.90;999.90;;;22.90;99.90;;;;;;5013996;28;20390;-73
2023/05/06 10:15:43;;;;;;;1999.90;999.90;;;23.20;99.90;;;;;;5014426;28;20402;-73
2023/05/06 10:18:09;;;;;;;1999.90;999.90;;;23.40;99.90;;;;;;5014322;28;20416;-73
2023/05/06 10:20:35;;;;;;;1999.90;999.90;;;23.60;99.90;;;;;;5014354;28;20441;-72
2023/05/06 10:23:29;;;;;;;1999.90;999.90;;;23.60;99.90;;;;;;5013986;28;20748;-74
2023/05/06 10:26:06;;;;;;;1999.90;999.90;;;23.80;99.90;;;;;;5014307;28;20407;-73
2023/05/06 10:28:38;;;;;;;1999.90;999.90;;;23.80;99.90;;;;;;5014233;28;20412;-73
2023/05/06 10:31:10;;;;;;;1999.90;999.90;;;23.90;99.90;;;;;;5013855;28;20403;-73
2023/05/06 10:33:36;;;;;;;1999.90;999.90;;;23.80;99.90;;;;;;5013872;28;20417;-72
2023/05/06 10:36:24;;;;;;;1999.90;999.90;;;23.80;99.90;;;;;;5014080;28;20441;-73
2023/05/06 10:38:55;;;;;;;1999.90;999.90;;;23.80;99.90;;;;;;5014014;28;20533;-73
2023/05/06 10:41:26;;;;;;;1999.90;999.90;;;23.70;99.90;;;;;;5013892;28;20401;-73
2023/05/06 10:43:56;;;;;;;1999.90;999.90;;;23.80;99.90;;;;;;5013801;28;20439;-73
2023/05/06 10:46:26;;;;;;;1999.90;999.90;;;23.90;99.90;;;;;;5013789;28;20939;-73
2023/05/06 10:49:01;;;;;;;1999.90;999.90;;;24.00;99.90;;;;;;5013788;28;20391;-73
2023/05/06 10:51:27;;;;;;;1999.90;999.90;;;24.30;99.90;;;;;;5013484;28;20929;-73
2023/05/06 10:54:03;;;;;;;1999.90;999.90;;;24.40;99.90;;;;;;5013468;28;20455;-73
2023/05/06 10:56:32;;;;;;;1999.90;999.90;;;24.70;99.90;;;;;;5013575;28;20443;-73
2023/05/06 10:59:10;;;;;;;1999.90;999.90;;;25.20;99.90;;;;;;5013583;28;20412;-73
2023/05/06 11:01:38;;;;;;;1999.90;999.90;;;25.30;99.90;;;;;;5013470;28;20775;-73
2023/05/06 11:04:06;;;;;;;1999.90;999.90;;;25.60;99.90;;;;;;5013423;28;20417;-73
2023/05/06 11:06:35;;;;;;;1999.90;999.90;;;25.80;97.20;;;;;;5013850;28;20449;-73
2023/05/06 11:09:03;;;;;;;1999.90;999.90;;;25.70;97.00;;;;;;5013276;28;20493;-73
2023/05/06 11:12:05;;;;;;;1999.90;999.90;;;25.50;96.90;;;;;;5013083;28;20416;-73
2023/05/06 11:14:34;;;;;;;1999.90;999.90;;;25.30;96.20;;;;;;5013094;28;20985;-73
2023/05/06 11:17:04;;;;;;;1999.90;999.90;;;25.10;97.40;;;;;;5013261;28;20391;-73
2023/05/06 11:19:31;;;;;;;1999.90;999.90;;;24.90;96.40;;;;;;5013471;28;20407;-73
2023/05/06 11:21:59;;;;;;;1999.90;999.90;;;24.70;96.00;;;;;;5012928;28;20379;-73
2023/05/06 11:24:42;;;;;;;1999.90;999.90;;;24.70;97.00;;;;;;5013037;28;20788;-73
2023/05/06 11:27:09;;;;;;;1999.90;999.90;;;24.70;98.90;;;;;;5013092;28;20382;-73
2023/05/06 11:29:35;;;;;;;1999.90;999.90;;;24.80;99.30;;;;;;5013027;28;20379;-73
2023/05/06 11:32:02;;;;;;;1999.90;999.90;;;24.80;98.00;;;;;;5012947;28;20408;-73
2023/05/06 11:34:30;;;;;;;1999.90;999.90;;;24.60;98.30;;;;;;5012924;28;20467;-73
2023/05/06 11:36:59;;;;;;;1999.90;999.90;;;24.40;94.60;;;;;;5012914;28;20777;-73
2023/05/06 11:39:31;;;;;;;1999.90;999.90;;;24.30;99.90;;;;;;5012891;28;20413;-73
2023/05/06 11:41:59;;;;;;;1999.90;999.90;;;24.40;99.50;;;;;;5012637;28;20769;-73
2023/05/06 11:44:36;;;;;;;1999.90;999.90;;;24.60;99.50;;;;;;5012642;28;20415;-73
2023/05/06 11:47:04;;;;;;;1999.90;999.90;;;25.00;99.90;;;;;;5012778;28;20870;-73
2023/05/06 11:49:35;;;;;;;1999.90;999.90;;;25.30;95.50;;;;;;5012761;28;20438;-73
2023/05/06 11:52:02;;;;;;;1999.90;999.90;;;25.40;93.40;;;;;;5011742;28;20894;-73
2023/05/06 11:54:27;;;;;;;1999.90;999.90;;;25.80;93.40;;;;;;5012441;28;20451;-72
2023/05/06 11:56:55;;;;;;;1999.90;999.90;;;26.30;95.00;;;;;;5012398;28;20412;-72
2023/05/06 11:59:29;;;;;;;1999.90;999.90;;;26.60;88.30;;;;;;5012531;28;20653;-72